Argyle Township, Maine
Current Conditions -  °F | °C
As of 12:53 AM on Friday 19 Dec 2014 (Local Time) from KBGR Reporting Station
Broken Clouds Broken Clouds  
Wind Chill: -7°   Ceiling: 3600
Heat Index: -2°   Visibility: 10mi
Dew Point: -4°   Wind: 12mph
Humidity: 82%   Direction: 300°WNW
Pressure: 29.74"   Gusts: NA
Location:  45.0236°N, 68.7394°W
Report Text: KBGR 190553Z 30010KT 10SM BKN036 M02/M04 A2974 RMK AO2 SLP074 4/002 T10171044 11006 21017 50004
Loading
Personal Weather Stations






























Interactive Weather Map New forecast layout! Learn more

10-Day Weather Forecast

Advertisements
Track Severe Weather on mobile